createdAt,value
2019-04-14T04:32:20.771Z,99.90
2019-04-14T04:35:21.724Z,99.90
2019-04-14T04:37:59.007Z,99.90
2019-04-14T04:40:31.118Z,99.90
2019-04-14T04:43:01.172Z,99.90
2019-04-14T04:45:30.271Z,99.90
2019-04-14T04:48:00.231Z,99.90
2019-04-14T04:50:30.280Z,99.90
2019-04-14T04:53:00.369Z,99.90
2019-04-14T04:55:30.408Z,99.90
2019-04-14T04:57:59.642Z,99.90
2019-04-14T05:00:28.811Z,99.90
2019-04-14T05:02:57.839Z,99.90
2019-04-14T05:06:02.795Z,99.90
2019-04-14T05:08:32.643Z,99.90
2019-04-14T05:11:12.189Z,99.90
2019-04-14T05:13:42.485Z,99.90
2019-04-14T05:16:12.698Z,99.90
2019-04-14T05:18:41.968Z,99.90
2019-04-14T05:21:10.980Z,99.90
2019-04-14T05:23:40.976Z,99.90
2019-04-14T05:26:11.254Z,99.90
2019-04-14T05:28:41.575Z,99.90
2019-04-14T05:31:12.143Z,99.90
2019-04-14T05:33:42.504Z,99.90
2019-04-14T05:36:12.771Z,99.90
2019-04-14T05:38:42.842Z,99.90
2019-04-14T05:41:11.885Z,99.90
2019-04-14T05:43:48.958Z,99.90
2019-04-14T05:46:12.071Z,99.90
2019-04-14T05:48:41.106Z,99.90
2019-04-14T05:51:10.996Z,99.90
2019-04-14T05:53:40.131Z,99.90
2019-04-14T05:56:09.947Z,99.90
2019-04-14T05:58:40.321Z,99.90
2019-04-14T06:01:11.273Z,99.90
2019-04-14T06:03:40.797Z,99.80
2019-04-14T06:06:09.934Z,99.90
2019-04-14T06:08:38.854Z,99.90
2019-04-14T06:11:07.963Z,99.90
2019-04-14T06:13:37.049Z,99.90
2019-04-14T06:16:06.276Z,99.50
2019-04-14T06:18:35.304Z,99.40
2019-04-14T06:21:04.414Z,99.60
2019-04-14T06:23:33.404Z,99.90
2019-04-14T06:26:02.332Z,99.90
2019-04-14T06:28:31.468Z,99.90
2019-04-14T06:31:10.341Z,99.90
2019-04-14T06:33:51.382Z,99.90
2019-04-14T06:36:50.178Z,99.90
2019-04-14T06:39:27.550Z,99.90
2019-04-14T06:41:56.696Z,99.90
2019-04-14T06:46:50.630Z,99.90
2019-04-14T06:49:19.729Z,99.90
2019-04-14T06:51:48.778Z,99.90
2019-04-14T06:54:21.235Z,99.90
2019-04-14T06:56:51.071Z,99.90
2019-04-14T06:59:20.106Z,99.90
2019-04-14T07:01:49.443Z,99.90
2019-04-14T07:04:18.534Z,99.20
2019-04-14T07:06:47.614Z,98.50
2019-04-14T07:09:16.870Z,99.00
2019-04-14T07:11:45.952Z,97.50
2019-04-14T07:14:14.931Z,97.30
2019-04-14T07:16:43.915Z,97.20
2019-04-14T07:19:12.918Z,97.40
2019-04-14T07:21:41.845Z,96.80
2019-04-14T07:24:10.768Z,95.20
2019-04-14T07:26:39.743Z,96.50
2019-04-14T07:29:08.734Z,94.70
2019-04-14T07:32:01.433Z,95.20
2019-04-14T07:34:48.438Z,94.10
2019-04-14T07:37:34.984Z,94.10
2019-04-14T07:40:15.611Z,94.40
2019-04-14T07:43:09.568Z,94.70
2019-04-14T07:46:03.378Z,94.80
2019-04-14T07:48:39.628Z,95.00
2019-04-14T07:51:45.998Z,96.40
2019-04-14T07:54:21.243Z,96.80
2019-04-14T07:57:06.472Z,97.20
2019-04-14T07:59:40.054Z,97.80
2019-04-14T08:02:15.635Z,97.20
2019-04-14T08:04:49.186Z,97.60
2019-04-14T08:07:18.210Z,98.10
2019-04-14T08:09:47.147Z,97.10
2019-04-14T08:12:16.125Z,95.00
2019-04-14T08:14:45.099Z,95.20
2019-04-14T08:17:14.083Z,95.50
2019-04-14T08:19:43.083Z,94.80
2019-04-14T08:22:12.237Z,94.10
2019-04-14T08:24:41.145Z,93.30
2019-04-14T08:27:10.138Z,92.40
2019-04-14T08:29:39.045Z,92.60
2019-04-14T08:32:08.106Z,92.70
2019-04-14T08:34:37.024Z,90.40
2019-04-14T08:37:06.036Z,90.40
2019-04-14T08:39:35.103Z,90.30
2019-04-14T08:42:29.026Z,91.10
2019-04-14T08:45:00.211Z,88.00
2019-04-14T08:47:52.671Z,83.70
2019-04-14T08:50:50.014Z,81.50
2019-04-14T08:53:23.870Z,79.70
2019-04-14T08:56:10.815Z,78.70
2019-04-14T08:58:49.838Z,77.40
2019-04-14T09:01:37.913Z,76.70
2019-04-14T09:04:15.251Z,80.00
2019-04-14T09:06:47.781Z,76.20
2019-04-14T09:09:23.832Z,75.00
2019-04-14T09:11:58.964Z,75.50
2019-04-14T09:14:27.984Z,76.80
2019-04-14T09:16:56.962Z,78.20
2019-04-14T09:19:25.923Z,77.60
2019-04-14T09:21:54.910Z,76.20
2019-04-14T09:24:23.830Z,75.70
2019-04-14T09:26:52.756Z,73.40
2019-04-14T09:29:21.767Z,74.20
2019-04-14T09:31:50.747Z,72.80
2019-04-14T09:34:19.849Z,70.90
2019-04-14T09:36:48.905Z,72.10
2019-04-14T09:39:17.920Z,71.50
2019-04-14T09:41:46.962Z,72.00
2019-04-14T09:44:15.955Z,72.30
2019-04-14T09:46:44.998Z,70.50
2019-04-14T09:49:13.992Z,67.50
2019-04-14T09:51:43.100Z,69.80
2019-04-14T09:54:12.020Z,70.60
2019-04-14T09:56:41.164Z,71.90
2019-04-14T09:59:10.169Z,68.20
2019-04-14T10:01:39.319Z,69.00
2019-04-14T10:04:08.395Z,66.40
2019-04-14T10:06:37.453Z,68.90
2019-04-14T10:09:07.528Z,67.50
2019-04-14T10:11:47.850Z,67.60
2019-04-14T10:14:07.442Z,69.50
2019-04-14T10:16:36.446Z,70.80
2019-04-14T10:19:05.674Z,72.80
2019-04-14T10:21:35.847Z,71.90
2019-04-14T10:24:05.131Z,73.00
2019-04-14T10:26:34.753Z,72.60
2019-04-14T10:29:03.780Z,70.90
2019-04-14T10:31:32.847Z,67.50
2019-04-14T10:34:02.218Z,66.00
2019-04-14T10:36:32.019Z,67.40
2019-04-14T10:39:01.447Z,70.90
2019-04-14T10:41:30.582Z,72.20
2019-04-14T10:43:59.523Z,67.50
2019-04-14T10:46:28.869Z,65.10
2019-04-14T10:48:57.867Z,65.80
2019-04-14T10:51:30.222Z,65.40
2019-04-14T10:53:57.785Z,66.00
2019-04-14T10:56:26.745Z,68.20
2019-04-14T10:58:55.918Z,71.40
2019-04-14T11:01:25.103Z,67.10
2019-04-14T11:03:54.868Z,67.70
2019-04-14T11:06:34.935Z,66.80
2019-04-14T11:09:06.566Z,65.00
2019-04-14T11:11:35.599Z,68.70
2019-04-14T11:14:04.862Z,71.60
2019-04-14T11:16:34.348Z,70.30
2019-04-14T11:19:03.406Z,70.00
2019-04-14T11:21:41.878Z,68.10
2019-04-14T11:24:03.063Z,68.90
2019-04-14T11:26:32.151Z,69.80
2019-04-14T11:29:01.229Z,70.10
2019-04-14T11:32:04.690Z,71.50
2019-04-14T11:34:38.781Z,68.50
2019-04-14T11:37:26.876Z,69.20
2019-04-14T11:39:55.944Z,68.80
2019-04-14T11:42:25.281Z,71.30
2019-04-14T11:44:54.339Z,72.10
2019-04-14T11:47:23.431Z,71.60
2019-04-14T11:49:52.507Z,70.80
2019-04-14T11:52:21.605Z,68.90
2019-04-14T11:54:50.674Z,69.00
2019-04-14T11:57:19.670Z,67.30
2019-04-14T11:59:56.004Z,70.30
2019-04-14T12:02:44.054Z,72.60
2019-04-14T12:05:21.538Z,72.20
2019-04-14T12:08:07.470Z,73.70
2019-04-14T12:10:36.403Z,72.90
2019-04-14T12:13:05.562Z,73.00
2019-04-14T12:15:34.630Z,74.80
2019-04-14T12:18:03.630Z,76.80
2019-04-14T12:20:32.731Z,74.20
2019-04-14T12:23:01.655Z,76.20
2019-04-14T12:25:30.839Z,73.70
2019-04-14T12:28:00.358Z,75.00
2019-04-14T12:30:29.521Z,72.90
2019-04-14T12:32:58.466Z,73.00
2019-04-14T12:35:27.526Z,74.20
2019-04-14T12:37:56.514Z,73.90
2019-04-14T12:40:25.540Z,73.60
2019-04-14T12:43:05.322Z,74.20
2019-04-14T12:46:08.727Z,75.20
2019-04-14T12:48:46.153Z,72.30
2019-04-14T12:51:24.448Z,72.80
2019-04-14T12:53:53.515Z,74.10
2019-04-14T12:56:25.363Z,72.10
2019-04-14T12:59:16.305Z,72.70
2019-04-14T13:01:52.251Z,74.40
2019-04-14T13:04:21.278Z,72.50
2019-04-14T13:06:50.242Z,72.60
2019-04-14T13:09:19.308Z,72.60
2019-04-14T13:11:48.290Z,74.80
2019-04-14T13:14:17.307Z,74.60
2019-04-14T13:16:46.378Z,75.00
2019-04-14T13:19:15.395Z,74.70
2019-04-14T13:21:44.591Z,74.20
2019-04-14T13:24:13.619Z,73.80
2019-04-14T13:26:42.703Z,74.60
2019-04-14T13:29:11.812Z,74.20
2019-04-14T13:31:40.904Z,72.50
2019-04-14T13:34:09.962Z,70.80
2019-04-14T13:36:39.292Z,72.30
2019-04-14T13:39:08.419Z,71.60
2019-04-14T13:41:37.818Z,72.50
2019-04-14T13:44:06.877Z,72.60
2019-04-14T13:46:35.866Z,72.30
2019-04-14T13:49:04.951Z,72.30
2019-04-14T13:51:34.013Z,72.80
2019-04-14T13:54:04.274Z,72.60
2019-04-14T13:56:33.328Z,74.20
2019-04-14T13:59:02.434Z,71.00
2019-04-14T14:01:50.565Z,71.70
2019-04-14T14:04:19.795Z,72.40
2019-04-14T14:06:48.733Z,72.20
2019-04-14T14:09:17.730Z,72.10
2019-04-14T14:12:12.022Z,71.60
2019-04-14T14:14:50.335Z,72.00
2019-04-14T14:17:31.975Z,72.00
2019-04-14T14:20:09.255Z,72.10
2019-04-14T14:22:44.978Z,72.40
2019-04-14T14:25:18.058Z,72.30
2019-04-14T14:27:46.983Z,73.10
2019-04-14T14:30:19.267Z,73.70
2019-04-14T14:32:48.458Z,72.90
2019-04-14T14:35:17.516Z,73.50
2019-04-14T14:37:46.630Z,73.70
2019-04-14T14:40:15.996Z,71.40
2019-04-14T14:42:45.146Z,71.30
2019-04-14T14:45:20.907Z,71.00
2019-04-14T14:47:57.859Z,71.00
2019-04-14T14:50:33.380Z,72.50
2019-04-14T14:53:11.986Z,74.30
2019-04-14T14:55:33.293Z,70.30
2019-04-14T14:58:02.442Z,72.60
2019-04-14T15:00:33.805Z,70.30
2019-04-14T15:03:03.151Z,69.30
2019-04-14T15:05:32.262Z,71.70
2019-04-14T15:08:01.186Z,68.80
2019-04-14T15:10:30.202Z,68.40
2019-04-14T15:12:59.284Z,68.10
2019-04-14T15:15:28.554Z,68.30
2019-04-14T15:17:57.726Z,70.20
2019-04-14T15:20:26.857Z,70.20
2019-04-14T15:22:55.962Z,71.80
2019-04-14T15:25:25.100Z,70.50
2019-04-14T15:27:54.108Z,70.80
2019-04-14T15:30:24.204Z,72.80
2019-04-14T15:32:53.230Z,73.70
2019-04-14T15:35:22.386Z,72.70
2019-04-14T15:37:51.499Z,73.00
2019-04-14T15:40:21.483Z,74.90
2019-04-14T15:42:50.631Z,73.80
2019-04-14T15:45:20.187Z,74.60
2019-04-14T15:47:49.275Z,74.70
2019-04-14T15:50:18.345Z,75.50
2019-04-14T15:52:47.416Z,75.60
2019-04-14T15:55:18.045Z,77.90
2019-04-14T15:58:04.865Z,78.00
2019-04-14T16:00:59.323Z,77.80
2019-04-14T16:03:39.035Z,76.50
2019-04-14T16:06:25.986Z,77.60
2019-04-14T16:09:14.055Z,78.20
2019-04-14T16:11:48.914Z,77.10
2019-04-14T16:14:37.575Z,77.80
2019-04-14T16:17:24.331Z,76.90
2019-04-14T16:20:03.820Z,77.30
2019-04-14T16:22:32.828Z,77.50
2019-04-14T16:25:01.839Z,78.00
2019-04-14T16:27:53.909Z,78.60
2019-04-14T16:30:41.988Z,78.40
2019-04-14T16:33:18.493Z,77.50
2019-04-14T16:35:47.707Z,78.50
2019-04-14T16:38:16.886Z,77.70
2019-04-14T16:40:45.883Z,78.90
2019-04-14T16:43:14.970Z,79.90
2019-04-14T16:45:44.007Z,80.50
2019-04-14T16:48:13.075Z,81.00
2019-04-14T16:50:42.105Z,80.20
2019-04-14T16:53:31.786Z,80.80
2019-04-14T16:56:23.044Z,82.50
2019-04-14T16:58:57.250Z,82.00
2019-04-14T17:01:32.931Z,82.00
2019-04-14T17:04:02.011Z,81.40
2019-04-14T17:06:30.933Z,81.60
2019-04-14T17:08:59.974Z,81.70
2019-04-14T17:11:29.086Z,81.70
2019-04-14T17:14:03.224Z,82.00
2019-04-14T17:16:46.149Z,82.90
2019-04-14T17:19:20.837Z,83.70
2019-04-14T17:21:54.282Z,83.20
2019-04-14T17:24:41.859Z,84.00
2019-04-14T17:27:36.105Z,83.30
2019-04-14T17:30:13.938Z,84.00
2019-04-14T17:33:16.827Z,84.20
2019-04-14T17:35:57.975Z,84.70
2019-04-14T17:38:32.624Z,85.20
2019-04-14T17:41:19.443Z,86.50
2019-04-14T17:44:02.872Z,84.70
2019-04-14T17:47:00.112Z,86.30
2019-04-14T17:49:44.408Z,85.40
2019-04-14T17:52:33.712Z,84.70
2019-04-14T17:55:06.709Z,85.50
2019-04-14T17:57:54.867Z,85.80
2019-04-14T18:00:45.792Z,86.00
2019-04-14T18:03:29.965Z,85.00
2019-04-14T18:06:16.454Z,85.60
2019-04-14T18:09:04.521Z,86.20
2019-04-14T18:11:41.735Z,85.70
2019-04-14T18:14:20.746Z,86.50
2019-04-14T18:17:04.759Z,86.60
2019-04-14T18:19:55.914Z,87.10
2019-04-14T18:22:24.965Z,87.10
2019-04-14T18:24:54.006Z,87.00
2019-04-14T18:27:23.243Z,87.60
2019-04-14T18:30:03.866Z,87.00
2019-04-14T18:32:40.750Z,88.40
2019-04-14T18:35:35.053Z,90.10
2019-04-14T18:38:38.903Z,89.60
2019-04-14T18:41:18.234Z,89.90
2019-04-14T18:43:52.264Z,89.60
2019-04-14T18:46:33.763Z,90.00
2019-04-14T18:49:15.069Z,89.20
2019-04-14T18:52:03.450Z,90.20
2019-04-14T18:54:54.833Z,89.90
2019-04-14T18:57:33.243Z,90.10
2019-04-14T19:00:10.564Z,90.30
2019-04-14T19:02:39.561Z,90.90
2019-04-14T19:05:08.703Z,90.70
2019-04-14T19:07:38.023Z,90.80
2019-04-14T19:10:08.095Z,91.40
2019-04-14T19:12:54.603Z,91.20
2019-04-14T19:15:29.537Z,90.80
2019-04-14T19:18:12.894Z,90.30
2019-04-14T19:20:44.770Z,90.80
2019-04-14T19:23:13.839Z,90.30
2019-04-14T19:25:42.890Z,90.60
2019-04-14T19:28:11.958Z,90.80
2019-04-14T19:30:41.057Z,90.90
2019-04-14T19:33:10.077Z,91.30
2019-04-14T19:35:39.160Z,91.50
2019-04-14T19:38:08.257Z,91.80
2019-04-14T19:40:37.441Z,91.30
2019-04-14T19:43:06.499Z,91.30
2019-04-14T19:45:35.668Z,91.70
2019-04-14T19:48:04.884Z,92.00
2019-04-14T19:50:34.735Z,92.00
2019-04-14T19:53:03.882Z,92.00
2019-04-14T19:55:32.983Z,92.40
2019-04-14T19:58:02.043Z,92.90
2019-04-14T20:00:31.137Z,92.90
2019-04-14T20:03:00.149Z,92.80
2019-04-14T20:05:29.177Z,92.90
2019-04-14T20:07:58.171Z,93.40
2019-04-14T20:10:27.234Z,93.30
2019-04-14T20:12:56.951Z,93.20
2019-04-14T20:15:28.806Z,93.60
2019-04-14T20:18:15.678Z,93.60
2019-04-14T20:21:07.055Z,94.00
2019-04-14T20:23:58.012Z,94.60
2019-04-14T20:26:46.058Z,94.70
2019-04-14T20:29:25.548Z,94.40
2019-04-14T20:32:03.340Z,94.70
2019-04-14T20:34:32.463Z,94.80
2019-04-14T20:37:01.380Z,95.00
2019-04-14T20:39:31.294Z,95.30
2019-04-14T20:42:00.301Z,95.70
2019-04-14T20:44:29.405Z,96.20
2019-04-14T20:46:58.512Z,96.40
2019-04-14T20:49:27.512Z,96.30
2019-04-14T20:51:56.598Z,96.40
2019-04-14T20:54:25.590Z,96.80
2019-04-14T20:56:54.747Z,97.10
2019-04-14T20:59:23.735Z,97.20
2019-04-14T21:01:58.984Z,97.60
2019-04-14T21:04:48.475Z,98.10
2019-04-14T21:07:36.547Z,98.00
2019-04-14T21:10:14.863Z,98.10
2019-04-14T21:12:52.059Z,98.60
2019-04-14T21:15:34.657Z,99.00
2019-04-14T21:18:28.802Z,99.50
2019-04-14T21:21:26.102Z,99.60
2019-04-14T21:24:20.490Z,99.90
2019-04-14T21:27:26.650Z,99.90
2019-04-14T21:30:06.813Z,99.90
2019-04-14T21:32:39.926Z,99.90
2019-04-14T21:35:31.203Z,99.90
2019-04-14T21:38:37.719Z,99.90
2019-04-14T21:41:13.780Z,99.90
2019-04-14T21:43:42.788Z,99.90
2019-04-14T21:46:11.907Z,99.90
2019-04-14T21:48:40.892Z,99.90
2019-04-14T21:51:09.896Z,99.90
2019-04-14T21:53:38.850Z,99.90
2019-04-14T21:56:13.596Z,99.90
2019-04-14T21:58:50.581Z,99.90
2019-04-14T22:01:56.373Z,99.90
2019-04-14T22:04:43.298Z,99.90
2019-04-14T22:07:26.455Z,99.90
2019-04-14T22:09:58.957Z,99.90
2019-04-14T22:12:28.033Z,99.90
2019-04-14T22:14:57.063Z,99.90
2019-04-14T22:17:26.083Z,99.90
2019-04-14T22:19:55.173Z,99.90
2019-04-14T22:22:24.166Z,99.90
2019-04-14T22:24:53.254Z,99.90
2019-04-14T22:27:22.254Z,99.90
2019-04-14T22:29:51.179Z,99.90
